Kaneohe Bay MCAS (Marion E. Carl Field) Airport Kaneohe US
ICAO: PHNG
IATA:
Category: Medium
Scheduled Services:

Elevation: 24 ft
TransAlt. 18000 ft.

Airport Communications:
APP/DEP:125
ATIS:28.45
CLNC DEL:29.47
CTAF:120.7
GND:38.28
PMSV METRO:34.46
PTD:30.72
TWR:120.7

PHNG Zoom In..

Runways:

(A) RW 04 length 7771 ft width 200 ft
---- / hdg 41

(B) RW 22 length 7771 ft width 200 ft
---- / hdg 221

Location; PHNG
Day. 19 / Time. 20.36 Zulu
* Altimeter: 30.03
* Temperature: 28° c. 82.4°f.
* Wind from: 070° Speed 11 kn with Gusts up to 16 kn.
Dewpoint: 22° c.
Visibility: 10 Statute Miles.
Clouds: Scattered 2300 ft.
Clouds: Broken 2900 ft.
Clouds: Overcast 5500 ft.

PHNG 192036Z AUTO 07011G16KT 10SM SCT023 BKN029 OVC055 28/22 A3003 RMK AO2 T02780222 $


Wind From 070°
Speed 11 kn.

 
 
jpsmedia.com for Web Design worldairports.se 2018   terms of use